createdAt,value
2023-02-28T00:04:53.900Z,1.37
2023-02-28T00:07:23.028Z,1.40
2023-02-28T00:09:50.927Z,1.34
2023-02-28T00:12:18.758Z,1.37
2023-02-28T00:14:46.557Z,1.30
2023-02-28T00:17:14.390Z,1.30
2023-02-28T00:19:42.440Z,1.32
2023-02-28T00:22:10.297Z,1.29
2023-02-28T00:24:39.600Z,1.28
2023-02-28T00:27:07.434Z,1.29
2023-02-28T00:29:35.418Z,1.33
2023-02-28T00:32:04.056Z,1.34
2023-02-28T00:34:32.413Z,1.43
2023-02-28T00:37:00.224Z,1.47
2023-02-28T00:39:28.162Z,1.56
2023-02-28T00:41:58.884Z,1.64
2023-02-28T00:44:26.991Z,1.72
2023-02-28T00:46:55.167Z,1.85
2023-02-28T00:49:27.451Z,1.95
2023-02-28T00:51:56.513Z,2.12
2023-02-28T00:54:25.145Z,2.18
2023-02-28T00:56:53.100Z,2.24
2023-02-28T00:59:22.422Z,2.33
2023-02-28T01:01:50.339Z,2.41
2023-02-28T01:04:18.575Z,2.50
2023-02-28T01:06:46.348Z,2.55
2023-02-28T01:09:14.197Z,2.57
2023-02-28T01:11:45.029Z,2.58
2023-02-28T01:14:19.545Z,2.62
2023-02-28T01:16:48.677Z,2.65
2023-02-28T01:19:17.455Z,2.62
2023-02-28T01:21:45.282Z,2.55
2023-02-28T01:24:14.268Z,2.50
2023-02-28T01:26:42.098Z,2.43
2023-02-28T01:29:10.012Z,2.48
2023-02-28T01:31:38.035Z,2.40
2023-02-28T01:34:07.231Z,2.39
2023-02-28T01:36:35.374Z,2.34
2023-02-28T01:39:04.831Z,2.29
2023-02-28T01:41:35.896Z,2.29
2023-02-28T01:44:08.498Z,2.34
2023-02-28T01:46:37.209Z,2.36
2023-02-28T01:49:13.872Z,2.37
2023-02-28T01:51:47.339Z,2.35
2023-02-28T01:54:21.809Z,2.34
2023-02-28T01:56:57.865Z,2.32
2023-02-28T01:59:35.986Z,2.25
2023-02-28T02:02:04.401Z,2.25
2023-02-28T02:04:46.281Z,2.18
2023-02-28T02:07:15.232Z,2.17
2023-02-28T02:09:46.396Z,2.08
2023-02-28T02:12:29.403Z,2.10
2023-02-28T02:15:09.122Z,2.09
2023-02-28T02:17:42.989Z,2.05
2023-02-28T02:21:11.809Z,2.05
2023-02-28T02:24:28.788Z,2.08
2023-02-28T02:27:26.173Z,2.00
2023-02-28T02:30:44.578Z,1.94
2023-02-28T02:33:52.775Z,1.85
2023-02-28T02:36:28.766Z,1.80
2023-02-28T02:39:07.047Z,1.72
2023-02-28T02:41:42.179Z,1.62
2023-02-28T02:44:18.880Z,1.56
2023-02-28T02:46:49.442Z,1.51
2023-02-28T02:49:25.019Z,1.47
2023-02-28T02:51:57.969Z,1.49
2023-02-28T02:54:32.513Z,1.36
2023-02-28T02:57:06.780Z,1.31
2023-02-28T02:59:38.223Z,1.27
2023-02-28T03:02:12.266Z,1.20
2023-02-28T03:04:51.681Z,1.22
2023-02-28T03:07:21.134Z,1.15
2023-02-28T03:09:53.989Z,1.19
2023-02-28T03:12:26.919Z,1.16
2023-02-28T03:15:09.053Z,1.17
2023-02-28T03:18:02.043Z,1.16
2023-02-28T03:20:45.100Z,1.03
2023-02-28T03:23:22.635Z,1.01
2023-02-28T03:26:01.897Z,0.97
2023-02-28T03:29:03.963Z,0.93
2023-02-28T03:31:39.632Z,0.88
2023-02-28T03:34:13.646Z,0.84
2023-02-28T03:36:50.689Z,0.82
2023-02-28T03:39:25.629Z,0.81
2023-02-28T03:42:00.809Z,0.90
2023-02-28T03:44:35.218Z,0.93
2023-02-28T03:47:09.158Z,0.93
2023-02-28T03:49:46.673Z,0.94
2023-02-28T03:52:15.585Z,0.97
2023-02-28T03:54:52.389Z,0.99
2023-02-28T03:57:30.177Z,0.99
2023-02-28T04:00:06.888Z,0.95
2023-02-28T04:02:40.747Z,0.87
2023-02-28T04:05:09.414Z,0.86
2023-02-28T04:07:37.539Z,0.83
2023-02-28T04:10:08.456Z,0.77
2023-02-28T04:12:36.219Z,0.67
2023-02-28T04:15:05.438Z,0.68
2023-02-28T04:17:33.287Z,0.66
2023-02-28T04:20:01.112Z,0.64
2023-02-28T04:22:28.941Z,0.60
2023-02-28T04:24:56.815Z,0.49
2023-02-28T04:27:26.091Z,0.55
2023-02-28T04:29:53.882Z,0.44
2023-02-28T04:32:21.834Z,0.54
2023-02-28T04:34:49.665Z,0.58
2023-02-28T04:37:17.448Z,0.57
2023-02-28T04:39:45.295Z,0.60
2023-02-28T04:42:14.187Z,0.59
2023-02-28T04:44:43.260Z,0.59
2023-02-28T04:47:11.014Z,0.53
2023-02-28T04:49:39.090Z,0.52
2023-02-28T04:52:08.443Z,0.47
2023-02-28T04:54:36.252Z,0.41
2023-02-28T04:57:05.347Z,0.40
2023-02-28T04:59:33.842Z,0.40
2023-02-28T05:02:07.900Z,0.38
2023-02-28T05:04:37.261Z,0.35
2023-02-28T05:07:05.068Z,0.32
2023-02-28T05:09:33.851Z,0.31
2023-02-28T05:12:02.067Z,0.27
2023-02-28T05:14:30.010Z,0.17
2023-02-28T05:16:57.764Z,0.15
2023-02-28T05:19:26.913Z,0.18
2023-02-28T05:21:56.150Z,0.24
2023-02-28T05:24:24.030Z,0.24
2023-02-28T05:26:54.918Z,0.22
2023-02-28T05:29:23.358Z,0.23
2023-02-28T05:31:51.393Z,0.22
2023-02-28T05:34:19.231Z,0.20
2023-02-28T05:36:48.503Z,0.18
2023-02-28T05:39:16.338Z,0.19
2023-02-28T05:41:44.872Z,0.18
2023-02-28T05:44:13.294Z,0.20
2023-02-28T05:46:41.113Z,0.21
2023-02-28T05:49:09.157Z,0.24
2023-02-28T05:51:40.494Z,0.25
2023-02-28T05:54:09.840Z,0.23
2023-02-28T05:56:40.020Z,0.26
2023-02-28T05:59:08.056Z,0.28
2023-02-28T06:01:39.220Z,0.30
2023-02-28T06:04:19.338Z,0.27
2023-02-28T06:06:53.702Z,0.25
2023-02-28T06:09:22.762Z,0.24
2023-02-28T06:11:50.571Z,0.25
2023-02-28T06:14:21.188Z,0.14
2023-02-28T06:16:49.209Z,0.10
2023-02-28T06:19:17.512Z,0.12
2023-02-28T06:21:46.282Z,0.13
2023-02-28T06:24:14.182Z,0.15
2023-02-28T06:26:43.258Z,0.11
2023-02-28T06:29:11.126Z,0.09
2023-02-28T06:31:39.550Z,0.09
2023-02-28T06:34:07.385Z,0.10
2023-02-28T06:36:35.261Z,0.10
2023-02-28T06:39:03.182Z,0.15
2023-02-28T06:41:38.426Z,0.16
2023-02-28T06:44:16.987Z,0.14
2023-02-28T06:46:46.715Z,0.12
2023-02-28T06:49:15.918Z,0.16
2023-02-28T06:51:48.418Z,0.18
2023-02-28T06:54:16.262Z,0.19
2023-02-28T06:56:44.478Z,0.21
2023-02-28T06:59:13.750Z,0.30
2023-02-28T07:01:41.719Z,0.37
2023-02-28T07:04:09.707Z,0.38
2023-02-28T07:06:37.629Z,0.49
2023-02-28T07:09:05.966Z,0.56
2023-02-28T07:11:33.983Z,0.66
2023-02-28T07:14:01.971Z,0.77
2023-02-28T07:16:31.266Z,0.87
2023-02-28T07:18:59.112Z,0.98
2023-02-28T07:21:26.897Z,1.10
2023-02-28T07:23:54.895Z,1.23
2023-02-28T07:26:22.770Z,1.35
2023-02-28T07:28:50.808Z,1.47
2023-02-28T07:31:19.750Z,1.57
2023-02-28T07:33:49.004Z,1.74
2023-02-28T07:36:19.740Z,1.94
2023-02-28T07:38:50.737Z,2.04
2023-02-28T07:41:21.774Z,2.22
2023-02-28T07:43:50.478Z,2.51
2023-02-28T07:46:18.571Z,2.67
2023-02-28T07:48:46.561Z,2.86
2023-02-28T07:51:15.692Z,3.02
2023-02-28T07:53:43.622Z,3.21
2023-02-28T07:56:11.682Z,3.24
2023-02-28T07:58:39.774Z,3.44
2023-02-28T08:01:09.811Z,3.37
2023-02-28T08:03:39.024Z,3.69
2023-02-28T08:06:15.592Z,3.78
2023-02-28T08:08:45.458Z,3.93
2023-02-28T08:11:13.602Z,4.20
2023-02-28T08:13:43.207Z,4.38
2023-02-28T08:16:12.997Z,4.51
2023-02-28T08:18:40.785Z,4.67
2023-02-28T08:21:09.709Z,4.88
2023-02-28T08:23:37.872Z,5.02
2023-02-28T08:26:07.622Z,5.27
2023-02-28T08:28:35.783Z,5.48
2023-02-28T08:31:09.694Z,5.66
2023-02-28T08:33:39.846Z,5.76
2023-02-28T08:36:08.966Z,5.94
2023-02-28T08:38:37.602Z,5.97
2023-02-28T08:41:11.485Z,6.12
2023-02-28T08:43:40.872Z,6.11
2023-02-28T08:46:12.047Z,6.25
2023-02-28T08:48:40.006Z,6.24
2023-02-28T08:51:11.341Z,6.39
2023-02-28T08:53:41.595Z,6.69
2023-02-28T08:56:13.847Z,6.81
2023-02-28T08:58:42.007Z,6.89
2023-02-28T09:01:12.072Z,7.35
2023-02-28T09:03:42.544Z,7.53
2023-02-28T09:06:12.799Z,7.52
2023-02-28T09:08:41.654Z,7.56
2023-02-28T09:11:11.428Z,7.70
2023-02-28T09:13:40.632Z,7.64
2023-02-28T09:16:12.035Z,7.87
2023-02-28T09:18:41.213Z,7.91
2023-02-28T09:21:15.034Z,7.54
2023-02-28T09:23:44.282Z,7.32
2023-02-28T09:26:17.463Z,7.74
2023-02-28T09:28:45.406Z,7.87
2023-02-28T09:31:15.995Z,8.02
2023-02-28T09:33:44.281Z,8.24
2023-02-28T09:36:12.174Z,8.20
2023-02-28T09:38:40.686Z,7.99
2023-02-28T09:41:16.642Z,8.03
2023-02-28T09:43:50.299Z,8.53
2023-02-28T09:46:34.654Z,8.31
2023-02-28T09:49:08.906Z,8.48
2023-02-28T09:51:52.362Z,8.64
2023-02-28T09:54:24.338Z,8.56
2023-02-28T09:57:00.562Z,8.82
2023-02-28T09:59:42.904Z,8.52
2023-02-28T10:02:36.744Z,8.82
2023-02-28T10:05:13.139Z,8.69
2023-02-28T10:08:02.593Z,8.80
2023-02-28T10:10:39.560Z,8.83
2023-02-28T10:13:22.943Z,8.89
2023-02-28T10:15:59.078Z,9.15
2023-02-28T10:18:34.601Z,9.26
2023-02-28T10:21:04.126Z,9.48
2023-02-28T10:23:36.532Z,9.35
2023-02-28T10:26:14.590Z,9.33
2023-02-28T10:28:44.511Z,9.56
2023-02-28T10:31:19.736Z,9.26
2023-02-28T10:33:48.874Z,9.77
2023-02-28T10:36:20.697Z,9.72
2023-02-28T10:38:52.851Z,9.50
2023-02-28T10:41:30.720Z,9.64
2023-02-28T10:44:21.625Z,9.82
2023-02-28T10:46:51.715Z,9.72
2023-02-28T10:49:24.029Z,10.14
2023-02-28T10:51:55.330Z,9.89
2023-02-28T10:54:31.764Z,9.63
2023-02-28T10:57:21.118Z,9.17
2023-02-28T11:00:06.356Z,9.33
2023-02-28T11:02:39.095Z,9.44
2023-02-28T11:05:27.520Z,9.66
2023-02-28T11:08:00.151Z,9.67
2023-02-28T11:10:36.046Z,10.07
2023-02-28T11:13:04.820Z,9.84
2023-02-28T11:15:36.108Z,9.54
2023-02-28T11:18:26.868Z,9.70
2023-02-28T11:20:58.643Z,10.14
2023-02-28T11:23:31.728Z,10.11
2023-02-28T11:26:03.006Z,10.44
2023-02-28T11:28:35.183Z,10.72
2023-02-28T11:31:20.114Z,10.51
2023-02-28T11:33:51.882Z,10.66
2023-02-28T11:36:25.506Z,10.51
2023-02-28T11:38:56.377Z,10.75
2023-02-28T11:41:50.890Z,11.54
2023-02-28T11:44:36.187Z,11.30
2023-02-28T11:47:16.866Z,11.04
2023-02-28T11:49:58.322Z,10.55
2023-02-28T11:52:41.550Z,10.71
2023-02-28T11:55:20.584Z,11.20
2023-02-28T11:58:22.770Z,11.36
2023-02-28T12:01:37.493Z,11.31
2023-02-28T12:04:26.042Z,10.95
2023-02-28T12:07:04.690Z,11.22
2023-02-28T12:09:53.413Z,10.94
2023-02-28T12:12:39.823Z,11.14
2023-02-28T12:15:29.839Z,10.58
2023-02-28T12:18:19.222Z,10.83
2023-02-28T12:21:02.612Z,10.64
2023-02-28T12:23:54.406Z,10.33
2023-02-28T12:26:37.830Z,10.55
2023-02-28T12:29:20.407Z,11.13
2023-02-28T12:31:54.315Z,10.77
2023-02-28T12:34:29.770Z,10.55
2023-02-28T12:37:07.718Z,10.39
2023-02-28T12:39:50.168Z,10.68
2023-02-28T12:42:26.453Z,11.29
2023-02-28T12:45:00.058Z,10.58
2023-02-28T12:47:28.110Z,10.67
2023-02-28T12:50:04.318Z,10.82
2023-02-28T12:52:46.672Z,10.70
2023-02-28T12:55:23.127Z,10.29
2023-02-28T12:58:02.719Z,10.26
2023-02-28T13:00:39.569Z,10.55
2023-02-28T13:03:52.496Z,11.69
2023-02-28T13:06:51.148Z,11.37
2023-02-28T13:09:21.291Z,11.17
2023-02-28T13:11:52.061Z,11.12
2023-02-28T13:14:26.721Z,11.18
2023-02-28T13:17:02.491Z,11.11
2023-02-28T13:19:34.884Z,10.67
2023-02-28T13:22:04.762Z,11.07
2023-02-28T13:24:49.829Z,11.32
2023-02-28T13:27:35.986Z,11.95
2023-02-28T13:30:37.106Z,11.87
2023-02-28T13:33:28.670Z,11.66
2023-02-28T13:36:30.969Z,12.40
2023-02-28T13:39:04.990Z,12.65
2023-02-28T13:41:47.317Z,12.54
2023-02-28T13:44:19.081Z,12.58
2023-02-28T13:47:29.047Z,11.75
2023-02-28T13:50:29.748Z,11.62
2023-02-28T13:53:33.466Z,11.96
2023-02-28T13:56:20.304Z,12.15
2023-02-28T13:59:00.982Z,12.06
2023-02-28T14:01:48.063Z,12.21
2023-02-28T14:07:40.387Z,11.43
2023-02-28T14:10:23.421Z,11.76
2023-02-28T14:13:15.215Z,11.48
2023-02-28T14:15:55.323Z,11.48
2023-02-28T14:18:33.252Z,11.77
2023-02-28T14:21:17.875Z,11.70
2023-02-28T14:24:52.207Z,11.50
2023-02-28T14:27:35.969Z,11.57
2023-02-28T14:30:41.701Z,11.94
2023-02-28T14:33:27.573Z,12.04
2023-02-28T14:36:08.764Z,12.31
2023-02-28T14:38:46.025Z,12.17
2023-02-28T14:41:24.939Z,12.07
2023-02-28T14:43:57.190Z,11.71
2023-02-28T14:46:34.247Z,11.67
2023-02-28T14:49:06.440Z,11.36
2023-02-28T14:51:34.640Z,10.95
2023-02-28T14:54:05.240Z,11.18
2023-02-28T14:56:38.309Z,11.38
2023-02-28T14:59:26.715Z,11.36
2023-02-28T15:02:21.374Z,11.36
2023-02-28T15:05:00.666Z,11.92
2023-02-28T15:07:29.584Z,12.22
2023-02-28T15:10:20.904Z,12.36
2023-02-28T15:12:54.427Z,12.32
2023-02-28T15:15:31.791Z,11.77
2023-02-28T15:18:16.867Z,11.25
2023-02-28T15:20:46.780Z,11.11
2023-02-28T15:23:17.342Z,10.60
2023-02-28T15:25:45.756Z,10.45
2023-02-28T15:28:20.914Z,10.32
2023-02-28T15:30:57.294Z,10.76
2023-02-28T15:33:28.224Z,10.54
2023-02-28T15:36:15.779Z,10.66
2023-02-28T15:38:45.003Z,10.78
2023-02-28T15:41:26.824Z,10.65
2023-02-28T15:44:28.045Z,10.50
2023-02-28T15:47:02.382Z,10.48
2023-02-28T15:49:45.064Z,10.31
2023-02-28T15:52:21.224Z,10.38
2023-02-28T15:54:49.924Z,10.18
2023-02-28T15:57:23.318Z,10.26
2023-02-28T15:59:56.774Z,10.15
2023-02-28T16:02:33.898Z,10.07
2023-02-28T16:05:28.826Z,9.97
2023-02-28T16:08:00.878Z,9.96
2023-02-28T16:10:30.662Z,9.84
2023-02-28T16:12:59.080Z,9.66
2023-02-28T16:15:30.041Z,9.58
2023-02-28T16:17:59.093Z,9.47
2023-02-28T16:20:29.620Z,9.11
2023-02-28T16:23:02.237Z,9.06
2023-02-28T16:25:37.766Z,8.76
2023-02-28T16:28:18.860Z,8.66
2023-02-28T16:30:47.547Z,8.24
2023-02-28T16:33:15.363Z,7.92
2023-02-28T16:35:43.150Z,7.81
2023-02-28T16:38:12.469Z,7.76
2023-02-28T16:40:40.345Z,7.51
2023-02-28T16:43:18.179Z,7.47
2023-02-28T16:45:46.700Z,7.21
2023-02-28T16:48:17.123Z,7.02
2023-02-28T16:50:45.567Z,6.81
2023-02-28T16:53:14.790Z,6.61
2023-02-28T16:55:42.666Z,6.52
2023-02-28T16:58:16.742Z,6.42
2023-02-28T17:00:44.957Z,6.28
2023-02-28T17:03:32.652Z,6.22
2023-02-28T17:06:02.317Z,6.11
2023-02-28T17:08:33.099Z,6.15
2023-02-28T17:11:02.617Z,6.15
2023-02-28T17:13:30.695Z,6.06
2023-02-28T17:15:58.636Z,5.84
2023-02-28T17:18:27.661Z,5.77
2023-02-28T17:20:55.477Z,5.68
2023-02-28T17:23:23.260Z,5.62
2023-02-28T17:25:57.883Z,5.59
2023-02-28T17:28:26.445Z,5.51
2023-02-28T17:30:54.310Z,5.44
2023-02-28T17:33:22.241Z,5.40
2023-02-28T17:35:50.245Z,5.30
2023-02-28T17:38:20.395Z,5.22
2023-02-28T17:40:48.279Z,5.15
2023-02-28T17:43:17.535Z,5.09
2023-02-28T17:45:45.449Z,5.01
2023-02-28T17:48:13.768Z,4.93
2023-02-28T17:50:41.973Z,4.91
2023-02-28T17:53:09.759Z,4.86
2023-02-28T17:55:38.166Z,4.80
2023-02-28T17:58:06.048Z,4.64
2023-02-28T18:00:35.542Z,4.59
2023-02-28T18:03:03.818Z,4.59
2023-02-28T18:05:32.237Z,4.57
2023-02-28T18:08:01.319Z,4.52
2023-02-28T18:10:29.237Z,4.46
2023-02-28T18:12:57.071Z,4.43
2023-02-28T18:15:25.080Z,4.38
2023-02-28T18:17:54.231Z,4.32
2023-02-28T18:20:22.351Z,4.25
2023-02-28T18:22:50.473Z,4.19
2023-02-28T18:25:18.744Z,4.18
2023-02-28T18:27:59.029Z,4.18
2023-02-28T18:30:31.533Z,4.11
2023-02-28T18:33:02.252Z,4.08
2023-02-28T18:35:35.112Z,4.06
2023-02-28T18:38:07.522Z,4.03
2023-02-28T18:40:36.599Z,4.00
2023-02-28T18:43:05.756Z,3.98
2023-02-28T18:45:36.984Z,3.96
2023-02-28T18:48:06.957Z,3.92
2023-02-28T18:50:38.120Z,3.87
2023-02-28T18:53:05.986Z,3.85
2023-02-28T18:55:34.431Z,3.81
2023-02-28T18:58:02.246Z,3.74
2023-02-28T19:00:31.367Z,3.70
2023-02-28T19:02:59.201Z,3.59
2023-02-28T19:05:32.869Z,3.52
2023-02-28T19:08:01.793Z,3.52
2023-02-28T19:10:29.828Z,3.47
2023-02-28T19:12:57.605Z,3.42
2023-02-28T19:15:25.631Z,3.35
2023-02-28T19:17:53.398Z,3.35
2023-02-28T19:20:21.277Z,3.35
2023-02-28T19:22:51.126Z,3.33
2023-02-28T19:25:19.557Z,3.28
2023-02-28T19:27:47.545Z,3.28
2023-02-28T19:30:16.352Z,3.22
2023-02-28T19:32:44.591Z,3.17
2023-02-28T19:35:12.731Z,3.12
2023-02-28T19:37:41.591Z,3.03
2023-02-28T19:40:13.720Z,2.95
2023-02-28T19:42:41.654Z,2.94
2023-02-28T19:45:14.590Z,2.87
2023-02-28T19:47:42.598Z,2.84
2023-02-28T19:50:11.193Z,2.75
2023-02-28T19:52:38.993Z,2.65
2023-02-28T19:55:08.039Z,2.61
2023-02-28T19:57:37.446Z,2.56
2023-02-28T20:00:07.545Z,2.54
2023-02-28T20:02:41.551Z,2.57
2023-02-28T20:05:10.155Z,2.56
2023-02-28T20:07:37.992Z,2.59
2023-02-28T20:10:07.146Z,2.59
2023-02-28T20:12:35.020Z,2.50
2023-02-28T20:15:05.415Z,2.52
2023-02-28T20:17:33.289Z,2.47
2023-02-28T20:20:01.513Z,2.45
2023-02-28T20:22:29.466Z,2.42
2023-02-28T20:24:57.330Z,2.43
2023-02-28T20:27:25.211Z,2.40
2023-02-28T20:29:53.206Z,2.36
2023-02-28T20:32:22.557Z,2.40
2023-02-28T20:34:50.326Z,2.35
2023-02-28T20:37:18.088Z,2.33
2023-02-28T20:39:45.935Z,2.29
2023-02-28T20:42:13.719Z,2.27
2023-02-28T20:44:41.605Z,2.20
2023-02-28T20:47:09.594Z,2.19
2023-02-28T20:49:38.614Z,2.17
2023-02-28T20:52:06.491Z,2.20
2023-02-28T20:54:36.032Z,2.19
2023-02-28T20:57:03.974Z,2.15
2023-02-28T20:59:32.097Z,2.13
2023-02-28T21:01:59.866Z,2.13
2023-02-28T21:04:27.781Z,2.10
2023-02-28T21:06:56.929Z,2.04
2023-02-28T21:09:26.460Z,1.92
2023-02-28T21:11:55.109Z,1.91
2023-02-28T21:14:23.826Z,1.89
2023-02-28T21:16:52.069Z,1.86
2023-02-28T21:19:20.684Z,1.77
2023-02-28T21:21:48.535Z,1.71
2023-02-28T21:24:19.882Z,1.64
2023-02-28T21:26:48.360Z,1.61
2023-02-28T21:29:16.604Z,1.61
2023-02-28T21:31:44.515Z,1.59
2023-02-28T21:34:13.634Z,1.55
2023-02-28T21:36:47.388Z,1.55
2023-02-28T21:39:21.784Z,1.55
2023-02-28T21:41:50.146Z,1.53
2023-02-28T21:44:18.673Z,1.52
2023-02-28T21:46:48.748Z,1.47
2023-02-28T21:49:16.976Z,1.41
2023-02-28T21:51:44.865Z,1.43
2023-02-28T21:54:13.837Z,1.44
2023-02-28T21:56:43.112Z,1.47
2023-02-28T21:59:11.607Z,1.53
2023-02-28T22:01:44.079Z,1.55
2023-02-28T22:04:21.420Z,1.58
2023-02-28T22:06:52.428Z,1.58
2023-02-28T22:09:21.815Z,1.57
2023-02-28T22:11:51.351Z,1.56
2023-02-28T22:14:19.475Z,1.53
2023-02-28T22:16:53.619Z,1.50
2023-02-28T22:19:23.623Z,1.47
2023-02-28T22:21:53.773Z,1.47
2023-02-28T22:24:24.169Z,1.48
2023-02-28T22:26:53.626Z,1.47
2023-02-28T22:29:22.159Z,1.47
2023-02-28T22:31:50.067Z,1.48
2023-02-28T22:34:17.929Z,1.43
2023-02-28T22:36:45.724Z,1.39
2023-02-28T22:39:13.700Z,1.38
2023-02-28T22:41:41.553Z,1.27
2023-02-28T22:44:10.955Z,1.27
2023-02-28T22:46:39.366Z,1.22
2023-02-28T22:49:07.462Z,1.16
2023-02-28T22:51:35.406Z,1.17
2023-02-28T22:54:04.357Z,1.15
2023-02-28T22:56:32.881Z,1.17
2023-02-28T22:59:02.212Z,1.19
2023-02-28T23:01:34.395Z,1.17
2023-02-28T23:04:03.387Z,1.13
2023-02-28T23:06:34.662Z,1.14
2023-02-28T23:09:06.590Z,1.13
2023-02-28T23:11:38.559Z,1.06
2023-02-28T23:14:07.894Z,1.09
2023-02-28T23:16:40.293Z,1.06
2023-02-28T23:19:11.812Z,1.03
2023-02-28T23:21:41.190Z,1.09
2023-02-28T23:24:11.304Z,1.11
2023-02-28T23:26:43.729Z,1.10
2023-02-28T23:29:12.787Z,1.03
2023-02-28T23:31:42.286Z,1.04
2023-02-28T23:34:10.703Z,1.01
2023-02-28T23:36:39.152Z,1.01
2023-02-28T23:39:07.224Z,1.01
2023-02-28T23:41:35.065Z,1.02
2023-02-28T23:44:02.793Z,0.99
2023-02-28T23:46:31.065Z,0.93
2023-02-28T23:49:00.485Z,0.91
2023-02-28T23:51:28.331Z,0.94
2023-02-28T23:53:56.126Z,0.96
2023-02-28T23:56:25.255Z,0.85
2023-02-28T23:58:55.355Z,0.82
